createdAt,value
2018-04-14T00:01:47.096Z,12.10
2018-04-14T00:03:50.471Z,9.60
2018-04-14T00:05:54.573Z,9.00
2018-04-14T00:07:57.897Z,9.60
2018-04-14T00:10:01.284Z,11.97
2018-04-14T00:12:04.644Z,14.83
2018-04-14T00:14:08.032Z,17.50
2018-04-14T00:16:13.521Z,10.73
2018-04-14T00:18:18.109Z,10.20
2018-04-14T00:20:22.591Z,10.73
2018-04-14T00:22:26.769Z,12.60
2018-04-14T00:24:30.142Z,7.57
2018-04-14T00:26:34.228Z,10.60
2018-04-14T00:28:38.321Z,9.73
2018-04-14T00:30:41.699Z,11.10
2018-04-14T00:32:45.012Z,9.97
2018-04-14T00:34:48.320Z,7.63
2018-04-14T00:36:52.441Z,11.23
2018-04-14T00:38:56.517Z,9.03
2018-04-14T00:40:59.881Z,9.33
2018-04-14T00:43:03.978Z,11.73
2018-04-14T00:45:07.353Z,7.23
2018-04-14T00:47:10.719Z,8.53
2018-04-14T00:49:14.054Z,8.27
2018-04-14T00:51:17.412Z,8.40
2018-04-14T00:53:33.470Z,6.83
2018-04-14T00:55:36.774Z,9.37
2018-04-14T00:57:40.153Z,17.40
2018-04-14T00:59:43.489Z,9.30
2018-04-14T01:01:46.837Z,11.53
2018-04-14T01:03:50.161Z,10.23
2018-04-14T01:05:54.239Z,7.10
2018-04-14T01:07:57.596Z,9.43
2018-04-14T01:10:00.960Z,10.07
2018-04-14T01:12:04.333Z,8.87
2018-04-14T01:14:08.410Z,7.20
2018-04-14T01:16:11.733Z,8.40
2018-04-14T01:18:15.837Z,8.17
2018-04-14T01:20:19.145Z,7.27
2018-04-14T01:22:23.267Z,8.13
2018-04-14T01:24:26.604Z,7.20
2018-04-14T01:26:29.932Z,8.27
2018-04-14T01:28:34.068Z,8.40
2018-04-14T01:30:37.398Z,6.83
2018-04-14T01:32:40.761Z,7.27
2018-04-14T01:34:44.089Z,6.33
2018-04-14T01:36:48.197Z,11.43
2018-04-14T01:38:51.578Z,6.13
2018-04-14T01:40:54.932Z,27.07
2018-04-14T01:42:58.258Z,6.60
2018-04-14T01:45:01.634Z,6.37
2018-04-14T01:47:05.737Z,8.90
2018-04-14T01:49:09.077Z,9.27
2018-04-14T01:51:13.168Z,7.07
2018-04-14T01:53:16.531Z,9.50
2018-04-14T01:55:19.879Z,6.30
2018-04-14T01:57:23.975Z,6.30
2018-04-14T01:59:27.322Z,6.53
2018-04-14T02:01:30.644Z,6.60
2018-04-14T02:03:34.034Z,7.07
2018-04-14T02:05:37.377Z,8.60
2018-04-14T02:07:40.716Z,5.40
2018-04-14T02:09:44.109Z,6.33
2018-04-14T02:11:48.216Z,5.07
2018-04-14T02:13:51.592Z,6.13
2018-04-14T02:15:54.938Z,9.70
2018-04-14T02:17:59.021Z,7.93
2018-04-14T02:20:03.195Z,6.30
2018-04-14T02:22:06.548Z,5.97
2018-04-14T02:24:09.887Z,6.80
2018-04-14T02:26:13.233Z,7.60
2018-04-14T02:28:16.573Z,9.90
2018-04-14T02:30:19.926Z,5.90
2018-04-14T02:32:23.233Z,7.60
2018-04-14T02:34:26.548Z,6.00
2018-04-14T02:36:29.947Z,8.67
2018-04-14T02:38:33.276Z,6.40
2018-04-14T02:42:46.166Z,7.80
2018-04-14T02:44:49.476Z,7.10
2018-04-14T02:46:52.819Z,6.27
2018-04-14T02:48:56.135Z,9.10
2018-04-14T02:50:59.476Z,11.23
2018-04-14T02:53:02.789Z,6.17
2018-04-14T02:55:06.858Z,7.10
2018-04-14T02:57:10.969Z,6.40
2018-04-14T02:59:15.073Z,6.20
2018-04-14T03:01:19.160Z,8.03
2018-04-14T03:03:22.491Z,6.60
2018-04-14T03:05:26.567Z,5.50
2018-04-14T03:07:29.965Z,6.40
2018-04-14T03:09:33.302Z,5.60
2018-04-14T03:11:36.630Z,7.83
2018-04-14T03:13:40.008Z,7.40
2018-04-14T03:15:43.315Z,6.33
2018-04-14T03:17:46.656Z,5.47
2018-04-14T03:19:49.964Z,7.73
2018-04-14T03:21:53.274Z,7.47
2018-04-14T03:23:56.639Z,5.13
2018-04-14T03:25:59.981Z,7.93
2018-04-14T03:28:03.365Z,5.50
2018-04-14T03:30:06.722Z,9.47
2018-04-14T03:32:10.056Z,6.13
2018-04-14T03:34:13.449Z,12.17
2018-04-14T03:36:16.750Z,6.60
2018-04-14T03:38:20.852Z,5.73
2018-04-14T03:40:24.186Z,7.50
2018-04-14T03:42:27.528Z,11.17
2018-04-14T03:44:30.871Z,8.60
2018-04-14T03:46:34.195Z,6.07
2018-04-14T03:48:37.507Z,5.40
2018-04-14T03:50:40.848Z,6.10
2018-04-14T03:52:44.162Z,6.77
2018-04-14T03:54:47.515Z,6.67
2018-04-14T03:56:50.855Z,7.00
2018-04-14T03:58:54.182Z,7.27
2018-04-14T04:00:59.122Z,13.93
2018-04-14T04:03:02.438Z,6.57
2018-04-14T04:05:05.796Z,5.23
2018-04-14T04:07:09.980Z,5.17
2018-04-14T04:09:13.302Z,5.40
2018-04-14T04:11:16.648Z,5.50
2018-04-14T04:13:20.023Z,6.83
2018-04-14T04:15:23.339Z,7.30
2018-04-14T04:17:26.689Z,6.90
2018-04-14T04:19:41.819Z,5.10
2018-04-14T04:21:57.787Z,6.90
2018-04-14T04:24:12.725Z,9.77
2018-04-14T04:26:15.826Z,14.57
2018-04-14T04:28:18.897Z,7.90
2018-04-14T04:30:21.961Z,5.00
2018-04-14T04:32:25.868Z,6.30
2018-04-14T04:34:29.705Z,5.97
2018-04-14T04:36:32.815Z,5.30
2018-04-14T04:38:35.904Z,5.87
2018-04-14T04:40:38.975Z,7.87
2018-04-14T04:42:42.120Z,7.13
2018-04-14T04:44:45.981Z,7.33
2018-04-14T04:46:49.082Z,6.40
2018-04-14T04:48:52.177Z,5.33
2018-04-14T04:50:56.082Z,8.43
2018-04-14T04:52:59.207Z,5.57
2018-04-14T04:55:02.312Z,5.37
2018-04-14T04:57:05.419Z,5.93
2018-04-14T04:59:08.497Z,4.70
2018-04-14T05:01:11.568Z,4.73
2018-04-14T05:03:14.688Z,5.70
2018-04-14T05:05:17.753Z,5.60
2018-04-14T05:07:20.830Z,4.50
2018-04-14T05:09:23.942Z,5.23
2018-04-14T05:11:27.076Z,4.57
2018-04-14T05:13:30.201Z,4.27
2018-04-14T05:15:33.309Z,5.27
2018-04-14T05:17:37.169Z,4.63
2018-04-14T05:19:40.275Z,4.10
2018-04-14T05:21:43.352Z,4.13
2018-04-14T05:23:46.476Z,5.40
2018-04-14T05:25:49.593Z,5.30
2018-04-14T05:27:52.678Z,5.43
2018-04-14T05:29:56.805Z,4.10
2018-04-14T05:31:59.899Z,4.70
2018-04-14T05:34:02.978Z,5.70
2018-04-14T05:36:06.135Z,9.10
2018-04-14T05:38:09.233Z,6.17
2018-04-14T05:40:12.430Z,8.53
2018-04-14T05:42:16.079Z,9.03
2018-04-14T05:44:20.294Z,6.97
2018-04-14T05:46:24.164Z,7.50
2018-04-14T05:48:27.229Z,8.80
2018-04-14T05:50:30.332Z,5.17
2018-04-14T05:52:33.448Z,4.90
2018-04-14T05:54:37.491Z,5.23
2018-04-14T05:56:40.560Z,6.50
2018-04-14T05:58:44.415Z,6.00
2018-04-14T06:00:47.520Z,5.37
2018-04-14T06:02:50.596Z,8.10
2018-04-14T06:04:53.667Z,5.83
2018-04-14T06:06:56.797Z,4.70
2018-04-14T06:09:00.647Z,5.90
2018-04-14T06:11:03.718Z,5.47
2018-04-14T06:13:06.831Z,8.00
2018-04-14T06:15:09.904Z,8.43
2018-04-14T06:17:13.010Z,8.20
2018-04-14T06:19:16.076Z,6.90
2018-04-14T06:21:19.148Z,8.63
2018-04-14T06:23:22.269Z,12.70
2018-04-14T06:25:25.405Z,7.70
2018-04-14T06:27:28.523Z,8.43
2018-04-14T06:29:31.629Z,8.20
2018-04-14T06:31:35.322Z,6.33
2018-04-14T06:33:38.576Z,13.90
2018-04-14T06:35:41.655Z,7.40
2018-04-14T06:37:44.743Z,7.87
2018-04-14T06:39:47.990Z,6.70
2018-04-14T06:41:51.077Z,7.43
2018-04-14T06:43:54.184Z,7.00
2018-04-14T06:45:57.248Z,6.20
2018-04-14T06:48:01.106Z,6.20
2018-04-14T06:50:04.208Z,6.97
2018-04-14T06:52:07.278Z,5.90
2018-04-14T06:54:10.407Z,5.90
2018-04-14T06:56:13.474Z,7.90
2018-04-14T06:58:16.564Z,10.03
2018-04-14T07:00:19.711Z,7.37
2018-04-14T07:02:22.803Z,8.23
2018-04-14T07:04:25.969Z,9.70
2018-04-14T07:06:29.800Z,8.27
2018-04-14T07:08:32.888Z,5.83
2018-04-14T07:10:36.009Z,10.27
2018-04-14T07:12:39.104Z,7.43
2018-04-14T07:14:42.959Z,8.23
2018-04-14T07:16:46.079Z,8.80
2018-04-14T07:18:49.169Z,7.70
2018-04-14T07:20:53.064Z,10.53
2018-04-14T07:22:56.180Z,7.90
2018-04-14T07:25:00.031Z,6.60
2018-04-14T07:27:03.126Z,6.53
2018-04-14T07:29:06.211Z,5.60
2018-04-14T07:31:09.324Z,5.87
2018-04-14T07:33:13.201Z,6.60
2018-04-14T07:35:16.328Z,5.83
2018-04-14T07:37:20.336Z,8.00
2018-04-14T07:39:23.459Z,5.80
2018-04-14T07:41:26.624Z,6.03
2018-04-14T07:43:30.309Z,4.80
2018-04-14T07:45:33.384Z,7.40
2018-04-14T07:47:36.541Z,5.53
2018-04-14T07:49:39.621Z,6.50
2018-04-14T07:51:42.767Z,4.23
2018-04-14T07:53:45.859Z,4.50
2018-04-14T07:55:48.952Z,3.90
2018-04-14T07:57:52.905Z,4.23
2018-04-14T07:59:55.993Z,4.77
2018-04-14T08:01:59.069Z,5.40
2018-04-14T08:04:02.178Z,4.30
2018-04-14T08:06:06.024Z,10.87
2018-04-14T08:08:10.100Z,5.60
2018-04-14T08:10:13.248Z,4.80
2018-04-14T08:12:16.333Z,4.03
2018-04-14T08:14:19.483Z,5.13
2018-04-14T08:16:22.594Z,3.37
2018-04-14T08:18:27.901Z,3.90
2018-04-14T08:20:31.983Z,3.40
2018-04-14T08:22:35.094Z,4.70
2018-04-14T08:24:40.140Z,13.80
2018-04-14T08:26:43.370Z,4.40
2018-04-14T08:28:47.225Z,3.70
2018-04-14T08:30:50.367Z,13.53
2018-04-14T08:32:54.208Z,4.53
2018-04-14T08:34:57.345Z,3.50
2018-04-14T08:37:00.444Z,3.87
2018-04-14T08:39:04.345Z,2.87
2018-04-14T08:41:08.327Z,2.80
2018-04-14T08:43:11.423Z,4.67
2018-04-14T08:45:14.586Z,3.37
2018-04-14T08:47:17.693Z,3.87
2018-04-14T08:49:20.776Z,2.90
2018-04-14T08:51:23.883Z,3.60
2018-04-14T08:53:26.966Z,3.23
2018-04-14T08:55:31.619Z,3.73
2018-04-14T08:57:35.222Z,3.50
2018-04-14T08:59:39.273Z,3.67
2018-04-14T09:01:42.521Z,8.57
2018-04-14T09:03:45.605Z,3.90
2018-04-14T09:05:48.685Z,3.20
2018-04-14T09:07:51.801Z,5.37
2018-04-14T09:09:54.885Z,3.77
2018-04-14T09:11:58.092Z,2.87
2018-04-14T09:14:01.176Z,3.30
2018-04-14T09:16:04.255Z,2.90
2018-04-14T09:18:08.360Z,6.30
2018-04-14T09:20:12.462Z,5.50
2018-04-14T09:22:15.871Z,5.70
2018-04-14T09:24:19.954Z,3.20
2018-04-14T09:26:24.050Z,2.13
2018-04-14T09:28:28.200Z,2.10
2018-04-14T09:30:32.282Z,3.27
2018-04-14T09:32:35.596Z,5.43
2018-04-14T09:34:40.573Z,6.10
2018-04-14T09:36:43.962Z,3.70
2018-04-14T09:38:48.523Z,3.47
2018-04-14T09:40:52.664Z,5.50
2018-04-14T09:42:56.791Z,2.47
2018-04-14T09:45:00.307Z,2.73
2018-04-14T09:47:03.660Z,3.83
2018-04-14T09:49:07.118Z,3.23
2018-04-14T09:51:12.093Z,2.30
2018-04-14T09:53:15.733Z,2.07
2018-04-14T09:55:20.525Z,4.70
2018-04-14T09:57:24.659Z,2.43
2018-04-14T09:59:28.093Z,2.30
2018-04-14T10:01:31.542Z,3.17
2018-04-14T10:03:34.897Z,2.90
2018-04-14T10:05:38.839Z,3.17
2018-04-14T10:07:42.148Z,1.60
2018-04-14T10:09:46.248Z,2.50
2018-04-14T10:11:50.507Z,2.00
2018-04-14T10:13:53.831Z,2.53
2018-04-14T10:15:57.173Z,4.37
2018-04-14T10:18:01.264Z,6.53
2018-04-14T10:20:05.357Z,3.53
2018-04-14T10:22:08.720Z,17.30
2018-04-14T10:24:12.030Z,5.30
2018-04-14T10:26:15.395Z,8.60
2018-04-14T10:28:18.713Z,3.00
2018-04-14T10:30:22.024Z,4.50
2018-04-14T10:32:26.159Z,2.10
2018-04-14T10:34:29.482Z,2.93
2018-04-14T10:36:32.831Z,1.93
2018-04-14T10:38:36.905Z,1.97
2018-04-14T10:40:40.242Z,2.47
2018-04-14T10:42:44.367Z,3.53
2018-04-14T10:44:47.720Z,2.43
2018-04-14T10:46:51.042Z,3.00
2018-04-14T10:48:54.408Z,3.10
2018-04-14T10:50:57.713Z,2.90
2018-04-14T10:53:01.821Z,4.30
2018-04-14T10:55:05.900Z,2.37
2018-04-14T10:57:10.015Z,2.73
2018-04-14T10:59:13.365Z,2.80
2018-04-14T11:01:16.722Z,3.00
2018-04-14T11:03:20.848Z,5.57
2018-04-14T11:05:24.164Z,3.80
2018-04-14T11:07:27.491Z,2.40
2018-04-14T11:09:30.849Z,2.30
2018-04-14T11:11:34.179Z,2.73
2018-04-14T11:13:37.538Z,10.00
2018-04-14T11:15:41.200Z,3.63
2018-04-14T11:17:44.547Z,2.07
2018-04-14T11:19:48.688Z,2.40
2018-04-14T11:21:52.772Z,7.30
2018-04-14T11:23:56.129Z,1.60
2018-04-14T11:25:59.445Z,4.00
2018-04-14T11:28:03.555Z,4.20
2018-04-14T11:30:06.897Z,4.67
2018-04-14T11:32:10.236Z,3.53
2018-04-14T11:34:14.469Z,2.10
2018-04-14T11:36:18.085Z,2.07
2018-04-14T11:38:22.199Z,1.43
2018-04-14T11:40:25.539Z,2.70
2018-04-14T11:42:28.893Z,2.70
2018-04-14T11:44:32.235Z,3.20
2018-04-14T11:46:35.664Z,2.93
2018-04-14T11:48:38.989Z,3.33
2018-04-14T11:50:42.353Z,4.30
2018-04-14T11:52:45.735Z,2.83
2018-04-14T11:54:49.117Z,1.63
2018-04-14T11:56:53.627Z,3.00
2018-04-14T11:58:57.028Z,5.50
2018-04-14T12:01:01.146Z,3.27
2018-04-14T12:03:04.800Z,2.07
2018-04-14T12:05:08.918Z,2.10
2018-04-14T12:07:12.287Z,2.23
2018-04-14T12:09:15.623Z,3.63
2018-04-14T12:11:19.771Z,2.03
2018-04-14T12:13:24.574Z,2.90
2018-04-14T12:15:29.110Z,2.20
2018-04-14T12:17:32.651Z,2.03
2018-04-14T12:19:36.854Z,2.70
2018-04-14T12:21:40.329Z,2.00
2018-04-14T12:23:44.055Z,2.80
2018-04-14T12:25:47.450Z,3.10
2018-04-14T12:27:51.964Z,3.70
2018-04-14T12:29:56.592Z,2.30
2018-04-14T12:32:00.500Z,1.83
2018-04-14T12:34:04.026Z,1.60
2018-04-14T12:36:07.357Z,1.83
2018-04-14T12:38:11.488Z,1.60
2018-04-14T12:40:15.675Z,2.60
2018-04-14T12:42:19.044Z,3.60
2018-04-14T12:44:22.415Z,1.60
2018-04-14T12:46:26.502Z,1.37
2018-04-14T12:48:30.622Z,1.60
2018-04-14T12:50:33.997Z,3.40
2018-04-14T12:52:38.114Z,2.20
2018-04-14T12:54:41.478Z,2.60
2018-04-14T12:56:44.810Z,1.60
2018-04-14T12:58:48.907Z,3.57
2018-04-14T13:00:52.280Z,4.63
2018-04-14T13:02:55.779Z,5.03
2018-04-14T13:05:00.054Z,4.20
2018-04-14T13:07:03.393Z,3.60
2018-04-14T13:09:07.507Z,1.50
2018-04-14T13:11:10.883Z,2.90
2018-04-14T13:13:14.200Z,1.50
2018-04-14T13:15:17.695Z,2.87
2018-04-14T13:17:21.362Z,3.20
2018-04-14T13:19:24.685Z,2.60
2018-04-14T13:21:28.077Z,1.60
2018-04-14T13:23:32.491Z,3.27
2018-04-14T13:25:35.848Z,2.20
2018-04-14T13:27:40.273Z,1.77
2018-04-14T13:29:44.065Z,9.10
2018-04-14T13:31:47.848Z,1.50
2018-04-14T13:33:51.647Z,1.97
2018-04-14T13:35:55.209Z,3.87
2018-04-14T13:37:58.629Z,3.30
2018-04-14T13:40:02.731Z,2.27
2018-04-14T13:42:06.136Z,1.40
2018-04-14T13:44:09.518Z,3.80
2018-04-14T13:46:12.838Z,1.30
2018-04-14T13:48:16.220Z,1.63
2018-04-14T13:50:20.424Z,1.70
2018-04-14T13:52:23.808Z,1.57
2018-04-14T13:54:27.150Z,2.20
2018-04-14T13:56:30.497Z,1.97
2018-04-14T13:58:33.844Z,1.47
2018-04-14T14:00:37.182Z,1.53
2018-04-14T14:02:40.504Z,3.53
2018-04-14T14:04:43.905Z,1.73
2018-04-14T14:06:48.867Z,1.47
2018-04-14T14:08:53.431Z,1.83
2018-04-14T14:10:56.753Z,1.60
2018-04-14T14:13:01.835Z,2.00
2018-04-14T14:15:05.250Z,1.50
2018-04-14T14:17:08.843Z,1.30
2018-04-14T14:19:12.185Z,1.30
2018-04-14T14:21:16.336Z,1.20
2018-04-14T14:23:19.996Z,2.20
2018-04-14T14:25:24.681Z,4.57
2018-04-14T14:27:27.998Z,1.67
2018-04-14T14:29:31.405Z,4.37
2018-04-14T14:31:35.604Z,4.80
2018-04-14T14:33:39.825Z,2.47
2018-04-14T14:35:43.795Z,2.07
2018-04-14T14:37:47.146Z,1.23
2018-04-14T14:39:50.546Z,1.67
2018-04-14T14:41:53.963Z,3.23
2018-04-14T14:43:57.267Z,2.13
2018-04-14T14:46:01.391Z,1.20
2018-04-14T14:48:04.990Z,1.50
2018-04-14T14:50:16.002Z,1.20
2018-04-14T14:52:20.276Z,3.30
2018-04-14T14:54:24.414Z,1.90
2018-04-14T14:56:28.604Z,2.00
2018-04-14T14:58:31.968Z,2.80
2018-04-14T15:00:35.444Z,4.00
2018-04-14T15:02:38.781Z,5.60
2018-04-14T15:04:42.936Z,11.77
2018-04-14T15:06:46.326Z,3.20
2018-04-14T15:08:49.641Z,2.57
2018-04-14T15:10:53.018Z,1.80
2018-04-14T15:12:58.063Z,1.30
2018-04-14T15:15:01.589Z,2.73
2018-04-14T15:17:04.983Z,3.90
2018-04-14T15:19:09.700Z,3.93
2018-04-14T15:21:14.353Z,4.70
2018-04-14T15:23:18.047Z,3.07
2018-04-14T15:25:23.515Z,2.63
2018-04-14T15:27:28.942Z,2.50
2018-04-14T15:29:32.371Z,1.50
2018-04-14T15:31:36.600Z,2.27
2018-04-14T15:33:39.949Z,3.70
2018-04-14T15:35:44.463Z,2.63
2018-04-14T15:37:48.183Z,13.80
2018-04-14T15:39:51.652Z,16.90
2018-04-14T15:41:54.972Z,9.43
2018-04-14T15:43:58.333Z,2.70
2018-04-14T15:46:01.660Z,3.90
2018-04-14T15:48:05.172Z,6.13
2018-04-14T15:50:08.564Z,9.23
2018-04-14T15:52:11.906Z,3.27
2018-04-14T15:54:15.263Z,3.73
2018-04-14T15:56:19.363Z,3.23
2018-04-14T15:58:22.734Z,3.70
2018-04-14T16:00:26.279Z,2.80
2018-04-14T16:02:30.442Z,1.40
2018-04-14T16:04:34.194Z,2.20
2018-04-14T16:06:37.552Z,2.67
2018-04-14T16:08:41.692Z,3.53
2018-04-14T16:10:45.773Z,1.33
2018-04-14T16:12:49.159Z,3.03
2018-04-14T16:14:53.049Z,4.70
2018-04-14T16:16:56.800Z,1.50
2018-04-14T16:19:00.150Z,1.80
2018-04-14T16:21:03.537Z,2.83
2018-04-14T16:23:07.645Z,1.97
2018-04-14T16:25:11.041Z,3.23
2018-04-14T16:27:14.354Z,3.03
2018-04-14T16:29:17.689Z,1.63
2018-04-14T16:31:21.049Z,3.30
2018-04-14T16:33:25.139Z,1.77
2018-04-14T16:35:28.522Z,1.70
2018-04-14T16:37:32.640Z,1.60
2018-04-14T16:39:35.964Z,1.40
2018-04-14T16:41:39.381Z,5.23
2018-04-14T16:43:42.683Z,3.40
2018-04-14T16:45:46.114Z,2.10
2018-04-14T16:47:50.191Z,2.10
2018-04-14T16:49:53.505Z,2.23
2018-04-14T16:51:56.920Z,7.53
2018-04-14T16:54:00.242Z,2.30
2018-04-14T16:56:03.618Z,2.80
2018-04-14T16:58:06.948Z,2.60
2018-04-14T17:00:10.288Z,2.57
2018-04-14T17:02:13.663Z,3.83
2018-04-14T17:04:16.967Z,2.60
2018-04-14T17:06:20.314Z,3.30
2018-04-14T17:08:23.635Z,7.13
2018-04-14T17:10:27.713Z,4.20
2018-04-14T17:12:31.068Z,7.00
2018-04-14T17:14:34.375Z,2.97
2018-04-14T17:16:37.709Z,2.20
2018-04-14T17:18:41.073Z,2.67
2018-04-14T17:20:44.426Z,2.03
2018-04-14T17:22:47.768Z,4.87
2018-04-14T17:24:51.152Z,3.37
2018-04-14T17:26:56.183Z,5.60
2018-04-14T17:28:59.533Z,2.60
2018-04-14T17:31:02.839Z,4.87
2018-04-14T17:33:06.264Z,3.30
2018-04-14T17:35:09.665Z,1.80
2018-04-14T17:37:13.048Z,1.77
2018-04-14T17:39:16.440Z,4.70
2018-04-14T17:41:19.804Z,2.67
2018-04-14T17:43:23.170Z,6.03
2018-04-14T17:45:26.496Z,7.90
2018-04-14T17:47:29.834Z,5.17
2018-04-14T17:49:33.964Z,7.33
2018-04-14T17:51:37.276Z,5.57
2018-04-14T17:53:40.650Z,10.20
2018-04-14T17:55:44.005Z,5.37
2018-04-14T17:57:47.314Z,6.00
2018-04-14T17:59:51.412Z,3.17
2018-04-14T18:01:54.742Z,5.70
2018-04-14T18:03:58.048Z,2.67
2018-04-14T18:06:01.393Z,3.70
2018-04-14T18:08:05.477Z,2.53
2018-04-14T18:10:08.865Z,4.30
2018-04-14T18:12:13.830Z,6.57
2018-04-14T18:14:18.288Z,4.33
2018-04-14T18:16:22.218Z,11.63
2018-04-14T18:18:26.407Z,3.00
2018-04-14T18:20:29.796Z,6.23
2018-04-14T18:22:33.123Z,4.67
2018-04-14T18:24:36.440Z,6.60
2018-04-14T18:26:39.807Z,8.17
2018-04-14T18:28:43.974Z,4.00
2018-04-14T18:30:47.589Z,3.10
2018-04-14T18:32:51.631Z,2.87
2018-04-14T18:34:55.810Z,3.90
2018-04-14T18:37:00.588Z,3.00
2018-04-14T18:39:05.974Z,3.57
2018-04-14T18:41:11.106Z,4.90
2018-04-14T18:43:15.397Z,4.53
2018-04-14T18:45:18.833Z,5.03
2018-04-14T18:47:22.162Z,8.77
2018-04-14T18:49:25.483Z,8.13
2018-04-14T18:51:28.832Z,7.60
2018-04-14T18:53:32.903Z,3.90
2018-04-14T18:55:37.066Z,3.90
2018-04-14T18:57:40.418Z,8.30
2018-04-14T18:59:43.741Z,5.77
2018-04-14T19:01:47.391Z,4.03
2018-04-14T19:03:51.645Z,5.87
2018-04-14T19:05:55.728Z,7.90
2018-04-14T19:08:00.406Z,8.30
2018-04-14T19:10:04.107Z,22.43
2018-04-14T19:12:08.126Z,36.30
2018-04-14T19:14:11.503Z,48.63
2018-04-14T19:16:14.860Z,48.00
2018-04-14T19:18:19.005Z,40.77
2018-04-14T19:20:22.379Z,31.40
2018-04-14T19:22:25.790Z,34.00
2018-04-14T19:24:29.184Z,34.83
2018-04-14T19:26:32.556Z,31.00
2018-04-14T19:28:36.662Z,24.13
2018-04-14T19:30:40.754Z,19.20
2018-04-14T19:32:44.914Z,17.63
2018-04-14T19:34:48.247Z,14.37
2018-04-14T19:36:51.590Z,11.97
2018-04-14T19:38:56.350Z,14.57
2018-04-14T19:41:00.833Z,16.57
2018-04-14T19:43:04.993Z,9.40
2018-04-14T19:45:09.141Z,10.67
2018-04-14T19:47:12.803Z,12.10
2018-04-14T19:49:16.937Z,13.00
2018-04-14T19:51:21.055Z,13.73
2018-04-14T19:53:24.438Z,15.00
2018-04-14T19:55:29.591Z,12.47
2018-04-14T19:57:33.070Z,10.00
2018-04-14T19:59:36.946Z,8.30
2018-04-14T20:01:40.605Z,10.63
2018-04-14T20:03:44.248Z,8.30
2018-04-14T20:05:48.656Z,5.03
2018-04-14T20:07:52.002Z,5.47
2018-04-14T20:09:56.065Z,3.93
2018-04-14T20:12:01.033Z,3.60
2018-04-14T20:14:04.838Z,3.33
2018-04-14T20:16:10.422Z,2.10
2018-04-14T20:18:14.019Z,2.97
2018-04-14T20:20:18.277Z,4.00
2018-04-14T20:22:21.648Z,4.60
2018-04-14T20:24:25.159Z,7.83
2018-04-14T20:26:29.221Z,9.50
2018-04-14T20:28:34.060Z,19.23
2018-04-14T20:30:38.801Z,23.17
2018-04-14T20:32:42.194Z,43.77
2018-04-14T20:34:45.605Z,36.73
2018-04-14T20:36:49.074Z,38.47
2018-04-14T20:38:53.177Z,37.23
2018-04-14T20:40:57.356Z,25.10
2018-04-14T20:43:01.004Z,26.17
2018-04-14T20:45:04.372Z,24.53
2018-04-14T20:47:07.701Z,20.27
2018-04-14T20:49:11.785Z,15.67
2018-04-14T20:51:15.921Z,21.00
2018-04-14T20:53:19.240Z,16.27
2018-04-14T20:55:23.608Z,12.23
2018-04-14T20:57:26.945Z,14.83
2018-04-14T20:59:30.256Z,11.97
2018-04-14T21:01:33.640Z,13.57
2018-04-14T21:03:36.972Z,8.73
2018-04-14T21:05:41.091Z,16.00
2018-04-14T21:07:44.417Z,9.53
2018-04-14T21:09:47.752Z,82.47
2018-04-14T21:11:51.883Z,60.93
2018-04-14T21:13:55.219Z,71.93
2018-04-14T21:16:00.582Z,67.20
2018-04-14T21:18:04.084Z,55.47
2018-04-14T21:20:09.170Z,31.90
2018-04-14T21:22:12.554Z,32.60
2018-04-14T21:24:15.889Z,19.80
2018-04-14T21:26:20.004Z,13.43
2018-04-14T21:28:24.170Z,12.20
2018-04-14T21:30:27.517Z,9.83
2018-04-14T21:32:31.653Z,9.47
2018-04-14T21:34:34.980Z,8.60
2018-04-14T21:36:38.348Z,9.77
2018-04-14T21:38:41.749Z,6.60
2018-04-14T21:40:45.074Z,6.80
2018-04-14T21:42:49.247Z,5.83
2018-04-14T21:44:52.570Z,7.10
2018-04-14T21:46:56.016Z,4.97
2018-04-14T21:48:59.384Z,6.80
2018-04-14T21:51:03.576Z,5.07
2018-04-14T21:53:07.680Z,3.80
2018-04-14T21:55:11.023Z,3.87
2018-04-14T21:57:14.354Z,4.30
2018-04-14T21:59:17.731Z,3.53
2018-04-14T22:01:21.033Z,3.80
2018-04-14T22:03:24.359Z,6.90
2018-04-14T22:05:28.478Z,3.57
2018-04-14T22:07:32.221Z,5.17
2018-04-14T22:09:36.272Z,5.20
2018-04-14T22:11:40.359Z,5.50
2018-04-14T22:13:43.711Z,7.07
2018-04-14T22:15:47.792Z,7.73
2018-04-14T22:17:51.118Z,8.27
2018-04-14T22:19:54.486Z,12.07
2018-04-14T22:21:58.726Z,11.00
2018-04-14T22:24:02.051Z,8.80
2018-04-14T22:26:05.464Z,10.10
2018-04-14T22:28:09.570Z,7.90
2018-04-14T22:30:13.699Z,8.50
2018-04-14T22:32:17.048Z,8.87
2018-04-14T22:34:20.383Z,8.83
2018-04-14T22:36:24.528Z,7.57
2018-04-14T22:38:27.838Z,8.10
2018-04-14T22:40:31.975Z,8.90
2018-04-14T22:42:36.916Z,9.33
2018-04-14T22:44:40.252Z,12.60
2018-04-14T22:46:43.609Z,9.10
2018-04-14T22:48:46.952Z,8.33
2018-04-14T22:50:50.275Z,7.67
2018-04-14T22:52:53.637Z,7.50
2018-04-14T22:54:56.956Z,8.20
2018-04-14T22:57:01.069Z,8.63
2018-04-14T22:59:05.244Z,8.53
2018-04-14T23:01:08.567Z,7.97
2018-04-14T23:03:12.677Z,7.63
2018-04-14T23:05:16.045Z,6.43
2018-04-14T23:07:20.183Z,9.60
2018-04-14T23:09:23.499Z,11.27
2018-04-14T23:11:26.819Z,7.10
2018-04-14T23:13:30.177Z,9.83
2018-04-14T23:15:33.512Z,6.03
2018-04-14T23:17:36.904Z,7.87
2018-04-14T23:19:40.236Z,12.63
2018-04-14T23:21:43.591Z,7.80
2018-04-14T23:23:47.707Z,6.70
2018-04-14T23:25:51.797Z,8.10
2018-04-14T23:27:55.201Z,8.03
2018-04-14T23:29:59.303Z,8.60
2018-04-14T23:32:02.634Z,6.20
2018-04-14T23:34:06.025Z,7.03
2018-04-14T23:36:09.473Z,5.80
2018-04-14T23:38:13.625Z,3.70
2018-04-14T23:40:16.955Z,5.37
2018-04-14T23:42:20.324Z,4.50
2018-04-14T23:44:23.672Z,5.70
2018-04-14T23:46:27.035Z,8.63
2018-04-14T23:48:30.401Z,4.60
2018-04-14T23:50:34.513Z,5.90
2018-04-14T23:52:37.857Z,5.70
2018-04-14T23:54:41.996Z,5.90
2018-04-14T23:56:46.085Z,4.97
2018-04-14T23:58:50.187Z,8.40
